sensor_id;sensor_type;location;lat;lon;timestamp;P1;durP1;ratioP1;P2;durP2;ratioP2
11921;SDS011;6021;51.182;3.160;2023-11-21T00:02:04;14.70;;;10.03;;
11921;SDS011;6021;51.182;3.160;2023-11-21T00:04:32;25.17;;;10.40;;
11921;SDS011;6021;51.182;3.160;2023-11-21T00:07:00;30.40;;;11.47;;
11921;SDS011;6021;51.182;3.160;2023-11-21T00:09:28;8.80;;;8.00;;
11921;SDS011;6021;51.182;3.160;2023-11-21T00:11:57;10.37;;;8.10;;
11921;SDS011;6021;51.182;3.160;2023-11-21T00:14:27;9.73;;;8.23;;
11921;SDS011;6021;51.182;3.160;2023-11-21T00:16:55;12.70;;;8.77;;
11921;SDS011;6021;51.182;3.160;2023-11-21T00:19:23;8.90;;;8.07;;
11921;SDS011;6021;51.182;3.160;2023-11-21T00:21:51;9.80;;;8.13;;
11921;SDS011;6021;51.182;3.160;2023-11-21T00:24:20;7.93;;;7.20;;
11921;SDS011;6021;51.182;3.160;2023-11-21T00:26:48;15.77;;;7.97;;
11921;SDS011;6021;51.182;3.160;2023-11-21T00:29:17;7.83;;;7.13;;
11921;SDS011;6021;51.182;3.160;2023-11-21T00:31:45;7.40;;;6.60;;
11921;SDS011;6021;51.182;3.160;2023-11-21T00:34:13;7.73;;;6.97;;
11921;SDS011;6021;51.182;3.160;2023-11-21T00:36:42;7.10;;;6.40;;
11921;SDS011;6021;51.182;3.160;2023-11-21T00:39:10;7.23;;;6.60;;
11921;SDS011;6021;51.182;3.160;2023-11-21T00:41:38;22.80;;;8.83;;
11921;SDS011;6021;51.182;3.160;2023-11-21T00:44:07;14.13;;;7.73;;
11921;SDS011;6021;51.182;3.160;2023-11-21T00:46:35;8.27;;;7.20;;
11921;SDS011;6021;51.182;3.160;2023-11-21T00:49:03;8.27;;;6.40;;
11921;SDS011;6021;51.182;3.160;2023-11-21T00:51:32;9.73;;;7.33;;
11921;SDS011;6021;51.182;3.160;2023-11-21T00:54:00;15.60;;;8.03;;
11921;SDS011;6021;51.182;3.160;2023-11-21T00:56:29;6.07;;;5.57;;
11921;SDS011;6021;51.182;3.160;2023-11-21T00:58:58;7.33;;;6.20;;
11921;SDS011;6021;51.182;3.160;2023-11-21T01:01:26;14.90;;;8.13;;
11921;SDS011;6021;51.182;3.160;2023-11-21T01:03:55;14.67;;;8.20;;
11921;SDS011;6021;51.182;3.160;2023-11-21T01:06:23;12.47;;;7.70;;
11921;SDS011;6021;51.182;3.160;2023-11-21T01:08:51;13.57;;;7.70;;
11921;SDS011;6021;51.182;3.160;2023-11-21T01:14:10;15.33;;;8.07;;
11921;SDS011;6021;51.182;3.160;2023-11-21T01:16:40;12.87;;;8.97;;
11921;SDS011;6021;51.182;3.160;2023-11-21T01:19:08;11.83;;;7.90;;
11921;SDS011;6021;51.182;3.160;2023-11-21T01:21:36;13.33;;;7.10;;
11921;SDS011;6021;51.182;3.160;2023-11-21T01:24:05;11.37;;;7.60;;
11921;SDS011;6021;51.182;3.160;2023-11-21T01:26:34;31.83;;;9.80;;
11921;SDS011;6021;51.182;3.160;2023-11-21T01:29:02;18.40;;;8.53;;
11921;SDS011;6021;51.182;3.160;2023-11-21T01:31:31;11.50;;;7.70;;
11921;SDS011;6021;51.182;3.160;2023-11-21T01:33:59;7.60;;;6.90;;
11921;SDS011;6021;51.182;3.160;2023-11-21T01:36:31;8.00;;;7.17;;
11921;SDS011;6021;51.182;3.160;2023-11-21T01:39:00;6.97;;;6.37;;
11921;SDS011;6021;51.182;3.160;2023-11-21T01:41:29;9.23;;;7.53;;
11921;SDS011;6021;51.182;3.160;2023-11-21T01:43:57;9.17;;;6.37;;
11921;SDS011;6021;51.182;3.160;2023-11-21T01:46:26;6.87;;;6.03;;
11921;SDS011;6021;51.182;3.160;2023-11-21T01:48:55;6.97;;;6.37;;
11921;SDS011;6021;51.182;3.160;2023-11-21T01:51:24;12.27;;;7.87;;
11921;SDS011;6021;51.182;3.160;2023-11-21T01:53:53;30.20;;;9.77;;
11921;SDS011;6021;51.182;3.160;2023-11-21T01:56:21;27.47;;;10.20;;
11921;SDS011;6021;51.182;3.160;2023-11-21T01:58:50;34.33;;;10.77;;
11921;SDS011;6021;51.182;3.160;2023-11-21T02:01:19;19.63;;;9.03;;
11921;SDS011;6021;51.182;3.160;2023-11-21T02:03:47;14.67;;;9.03;;
11921;SDS011;6021;51.182;3.160;2023-11-21T02:06:15;23.57;;;9.40;;
11921;SDS011;6021;51.182;3.160;2023-11-21T02:08:45;7.10;;;6.47;;
11921;SDS011;6021;51.182;3.160;2023-11-21T02:11:13;21.73;;;9.80;;
11921;SDS011;6021;51.182;3.160;2023-11-21T02:13:42;10.73;;;8.03;;
11921;SDS011;6021;51.182;3.160;2023-11-21T02:16:12;13.43;;;8.70;;
11921;SDS011;6021;51.182;3.160;2023-11-21T02:18:41;7.80;;;7.10;;
11921;SDS011;6021;51.182;3.160;2023-11-21T02:21:09;7.60;;;6.90;;
11921;SDS011;6021;51.182;3.160;2023-11-21T02:23:38;7.50;;;6.90;;
11921;SDS011;6021;51.182;3.160;2023-11-21T02:26:07;37.07;;;10.77;;
11921;SDS011;6021;51.182;3.160;2023-11-21T02:28:36;7.70;;;7.00;;
11921;SDS011;6021;51.182;3.160;2023-11-21T02:31:05;19.07;;;9.93;;
11921;SDS011;6021;51.182;3.160;2023-11-21T02:33:34;24.97;;;11.33;;
11921;SDS011;6021;51.182;3.160;2023-11-21T02:36:02;22.60;;;11.27;;
11921;SDS011;6021;51.182;3.160;2023-11-21T02:38:32;18.77;;;11.73;;
11921;SDS011;6021;51.182;3.160;2023-11-21T02:41:00;10.47;;;9.37;;
11921;SDS011;6021;51.182;3.160;2023-11-21T02:43:28;11.93;;;9.33;;
11921;SDS011;6021;51.182;3.160;2023-11-21T02:45:57;10.00;;;8.90;;
11921;SDS011;6021;51.182;3.160;2023-11-21T02:48:27;8.90;;;8.10;;
11921;SDS011;6021;51.182;3.160;2023-11-21T02:50:55;18.43;;;9.80;;
11921;SDS011;6021;51.182;3.160;2023-11-21T02:53:23;12.40;;;9.13;;
11921;SDS011;6021;51.182;3.160;2023-11-21T02:55:52;11.67;;;9.70;;
11921;SDS011;6021;51.182;3.160;2023-11-21T02:58:20;9.53;;;8.53;;
11921;SDS011;6021;51.182;3.160;2023-11-21T03:00:49;14.50;;;10.67;;
11921;SDS011;6021;51.182;3.160;2023-11-21T03:03:18;9.23;;;8.43;;
11921;SDS011;6021;51.182;3.160;2023-11-21T03:05:46;31.67;;;10.40;;
11921;SDS011;6021;51.182;3.160;2023-11-21T03:08:15;56.47;;;12.80;;
11921;SDS011;6021;51.182;3.160;2023-11-21T03:10:43;9.17;;;8.37;;
11921;SDS011;6021;51.182;3.160;2023-11-21T03:13:11;8.70;;;8.00;;
11921;SDS011;6021;51.182;3.160;2023-11-21T03:15:40;9.33;;;7.67;;
11921;SDS011;6021;51.182;3.160;2023-11-21T03:18:09;8.50;;;7.60;;
11921;SDS011;6021;51.182;3.160;2023-11-21T03:20:37;35.43;;;10.13;;
11921;SDS011;6021;51.182;3.160;2023-11-21T03:23:05;7.70;;;6.87;;
11921;SDS011;6021;51.182;3.160;2023-11-21T03:25:34;9.03;;;7.00;;
11921;SDS011;6021;51.182;3.160;2023-11-21T03:28:02;13.63;;;7.43;;
11921;SDS011;6021;51.182;3.160;2023-11-21T03:30:30;6.80;;;6.20;;
11921;SDS011;6021;51.182;3.160;2023-11-21T03:32:59;6.63;;;6.00;;
11921;SDS011;6021;51.182;3.160;2023-11-21T03:35:27;12.63;;;6.67;;
11921;SDS011;6021;51.182;3.160;2023-11-21T03:37:55;21.70;;;7.70;;
11921;SDS011;6021;51.182;3.160;2023-11-21T03:40:24;11.80;;;7.33;;
11921;SDS011;6021;51.182;3.160;2023-11-21T03:42:52;21.37;;;8.47;;
11921;SDS011;6021;51.182;3.160;2023-11-21T03:45:20;13.20;;;8.07;;
11921;SDS011;6021;51.182;3.160;2023-11-21T03:47:49;8.80;;;7.00;;
11921;SDS011;6021;51.182;3.160;2023-11-21T03:50:17;13.37;;;7.43;;
11921;SDS011;6021;51.182;3.160;2023-11-21T03:52:46;12.37;;;7.90;;
11921;SDS011;6021;51.182;3.160;2023-11-21T03:55:14;6.97;;;6.27;;
11921;SDS011;6021;51.182;3.160;2023-11-21T03:57:43;8.00;;;6.37;;
11921;SDS011;6021;51.182;3.160;2023-11-21T04:00:12;13.57;;;7.23;;
11921;SDS011;6021;51.182;3.160;2023-11-21T04:02:40;11.27;;;6.37;;
11921;SDS011;6021;51.182;3.160;2023-11-21T04:05:09;6.10;;;4.57;;
11921;SDS011;6021;51.182;3.160;2023-11-21T04:07:37;8.57;;;5.40;;
11921;SDS011;6021;51.182;3.160;2023-11-21T04:10:06;6.40;;;4.80;;
11921;SDS011;6021;51.182;3.160;2023-11-21T04:12:35;7.17;;;4.30;;
11921;SDS011;6021;51.182;3.160;2023-11-21T04:15:04;7.53;;;3.60;;
11921;SDS011;6021;51.182;3.160;2023-11-21T04:17:34;3.80;;;2.70;;
11921;SDS011;6021;51.182;3.160;2023-11-21T04:20:04;3.13;;;2.63;;
11921;SDS011;6021;51.182;3.160;2023-11-21T04:22:38;4.23;;;2.90;;
11921;SDS011;6021;51.182;3.160;2023-11-21T04:25:12;3.23;;;2.80;;
11921;SDS011;6021;51.182;3.160;2023-11-21T04:27:43;3.03;;;2.70;;
11921;SDS011;6021;51.182;3.160;2023-11-21T04:30:13;3.40;;;3.10;;
11921;SDS011;6021;51.182;3.160;2023-11-21T04:32:42;4.93;;;3.30;;
11921;SDS011;6021;51.182;3.160;2023-11-21T04:35:10;3.70;;;3.03;;
11921;SDS011;6021;51.182;3.160;2023-11-21T04:37:38;5.43;;;3.37;;
11921;SDS011;6021;51.182;3.160;2023-11-21T04:40:07;4.33;;;3.40;;
11921;SDS011;6021;51.182;3.160;2023-11-21T04:42:36;4.90;;;3.03;;
11921;SDS011;6021;51.182;3.160;2023-11-21T04:45:05;8.43;;;3.77;;
11921;SDS011;6021;51.182;3.160;2023-11-21T04:47:38;14.87;;;3.90;;
11921;SDS011;6021;51.182;3.160;2023-11-21T04:50:06;4.63;;;3.67;;
11921;SDS011;6021;51.182;3.160;2023-11-21T04:52:34;7.07;;;3.87;;
11921;SDS011;6021;51.182;3.160;2023-11-21T04:55:03;5.17;;;3.67;;
11921;SDS011;6021;51.182;3.160;2023-11-21T04:57:33;8.23;;;4.07;;
11921;SDS011;6021;51.182;3.160;2023-11-21T05:00:01;26.60;;;5.17;;
11921;SDS011;6021;51.182;3.160;2023-11-21T05:02:33;3.37;;;3.17;;
11921;SDS011;6021;51.182;3.160;2023-11-21T05:05:02;71.43;;;6.37;;
11921;SDS011;6021;51.182;3.160;2023-11-21T05:07:32;4.67;;;3.73;;
11921;SDS011;6021;51.182;3.160;2023-11-21T05:10:02;8.63;;;4.57;;
11921;SDS011;6021;51.182;3.160;2023-11-21T05:12:33;29.73;;;6.67;;
11921;SDS011;6021;51.182;3.160;2023-11-21T05:15:04;11.37;;;5.47;;
11921;SDS011;6021;51.182;3.160;2023-11-21T05:17:37;19.33;;;5.20;;
11921;SDS011;6021;51.182;3.160;2023-11-21T05:20:07;9.83;;;4.87;;
11921;SDS011;6021;51.182;3.160;2023-11-21T05:22:36;81.03;;;6.73;;
11921;SDS011;6021;51.182;3.160;2023-11-21T05:25:05;37.13;;;6.73;;
11921;SDS011;6021;51.182;3.160;2023-11-21T05:27:37;32.30;;;6.77;;
11921;SDS011;6021;51.182;3.160;2023-11-21T05:30:06;32.53;;;6.70;;
11921;SDS011;6021;51.182;3.160;2023-11-21T05:32:38;54.17;;;6.87;;
11921;SDS011;6021;51.182;3.160;2023-11-21T05:35:08;10.60;;;5.17;;
11921;SDS011;6021;51.182;3.160;2023-11-21T05:37:39;101.17;;;8.53;;
11921;SDS011;6021;51.182;3.160;2023-11-21T05:40:07;29.63;;;5.97;;
11921;SDS011;6021;51.182;3.160;2023-11-21T05:42:36;3.77;;;3.27;;
11921;SDS011;6021;51.182;3.160;2023-11-21T05:45:05;31.10;;;6.67;;
11921;SDS011;6021;51.182;3.160;2023-11-21T05:47:41;6.73;;;4.07;;
11921;SDS011;6021;51.182;3.160;2023-11-21T05:50:14;21.60;;;4.57;;
11921;SDS011;6021;51.182;3.160;2023-11-21T05:52:44;41.17;;;6.30;;
11921;SDS011;6021;51.182;3.160;2023-11-21T05:55:13;6.83;;;4.23;;
11921;SDS011;6021;51.182;3.160;2023-11-21T05:57:45;9.17;;;4.80;;
11921;SDS011;6021;51.182;3.160;2023-11-21T06:00:14;13.43;;;5.73;;
11921;SDS011;6021;51.182;3.160;2023-11-21T06:02:44;12.83;;;6.23;;
11921;SDS011;6021;51.182;3.160;2023-11-21T06:05:12;13.00;;;5.60;;
11921;SDS011;6021;51.182;3.160;2023-11-21T06:07:41;25.07;;;7.77;;
11921;SDS011;6021;51.182;3.160;2023-11-21T06:10:10;11.77;;;5.77;;
11921;SDS011;6021;51.182;3.160;2023-11-21T06:12:43;22.20;;;6.93;;
11921;SDS011;6021;51.182;3.160;2023-11-21T06:15:12;34.17;;;8.87;;
11921;SDS011;6021;51.182;3.160;2023-11-21T06:17:41;29.30;;;8.83;;
11921;SDS011;6021;51.182;3.160;2023-11-21T06:20:11;25.80;;;7.93;;
11921;SDS011;6021;51.182;3.160;2023-11-21T06:22:41;22.20;;;7.60;;
11921;SDS011;6021;51.182;3.160;2023-11-21T06:25:10;26.17;;;7.77;;
11921;SDS011;6021;51.182;3.160;2023-11-21T06:27:47;14.63;;;6.60;;
11921;SDS011;6021;51.182;3.160;2023-11-21T06:30:14;30.93;;;8.37;;
11921;SDS011;6021;51.182;3.160;2023-11-21T06:32:43;31.73;;;7.90;;
11921;SDS011;6021;51.182;3.160;2023-11-21T06:35:13;144.77;;;11.83;;
11921;SDS011;6021;51.182;3.160;2023-11-21T06:37:42;54.10;;;8.90;;
11921;SDS011;6021;51.182;3.160;2023-11-21T06:40:12;37.33;;;5.67;;
11921;SDS011;6021;51.182;3.160;2023-11-21T06:42:41;64.50;;;7.90;;
11921;SDS011;6021;51.182;3.160;2023-11-21T06:45:10;44.17;;;9.47;;
11921;SDS011;6021;51.182;3.160;2023-11-21T06:47:40;35.17;;;7.77;;
11921;SDS011;6021;51.182;3.160;2023-11-21T06:50:08;26.73;;;7.17;;
11921;SDS011;6021;51.182;3.160;2023-11-21T06:52:36;78.67;;;9.23;;
11921;SDS011;6021;51.182;3.160;2023-11-21T06:55:05;199.03;;;13.83;;
11921;SDS011;6021;51.182;3.160;2023-11-21T06:57:36;56.07;;;10.80;;
11921;SDS011;6021;51.182;3.160;2023-11-21T07:00:05;25.37;;;8.20;;
11921;SDS011;6021;51.182;3.160;2023-11-21T07:02:35;25.17;;;8.93;;
11921;SDS011;6021;51.182;3.160;2023-11-21T07:05:03;22.83;;;8.70;;
11921;SDS011;6021;51.182;3.160;2023-11-21T07:07:32;8.60;;;6.37;;
11921;SDS011;6021;51.182;3.160;2023-11-21T07:10:02;45.80;;;10.50;;
11921;SDS011;6021;51.182;3.160;2023-11-21T07:12:32;13.87;;;7.27;;
11921;SDS011;6021;51.182;3.160;2023-11-21T07:15:00;18.27;;;9.07;;
11921;SDS011;6021;51.182;3.160;2023-11-21T07:17:29;23.97;;;9.40;;
11921;SDS011;6021;51.182;3.160;2023-11-21T07:19:58;30.17;;;10.73;;
11921;SDS011;6021;51.182;3.160;2023-11-21T07:22:26;23.17;;;8.93;;
11921;SDS011;6021;51.182;3.160;2023-11-21T07:24:55;41.13;;;10.40;;
11921;SDS011;6021;51.182;3.160;2023-11-21T07:27:26;11.03;;;7.80;;
11921;SDS011;6021;51.182;3.160;2023-11-21T07:29:56;11.80;;;8.10;;
11921;SDS011;6021;51.182;3.160;2023-11-21T07:32:24;11.10;;;8.37;;
11921;SDS011;6021;51.182;3.160;2023-11-21T07:34:53;12.57;;;8.40;;
11921;SDS011;6021;51.182;3.160;2023-11-21T07:37:23;16.23;;;9.33;;
11921;SDS011;6021;51.182;3.160;2023-11-21T07:39:51;21.73;;;9.53;;
11921;SDS011;6021;51.182;3.160;2023-11-21T07:42:21;24.90;;;10.93;;
11921;SDS011;6021;51.182;3.160;2023-11-21T07:44:53;14.30;;;9.07;;
11921;SDS011;6021;51.182;3.160;2023-11-21T07:47:21;20.63;;;10.37;;
11921;SDS011;6021;51.182;3.160;2023-11-21T07:49:51;17.97;;;9.27;;
11921;SDS011;6021;51.182;3.160;2023-11-21T07:52:22;23.60;;;9.53;;
11921;SDS011;6021;51.182;3.160;2023-11-21T07:54:50;17.80;;;8.87;;
11921;SDS011;6021;51.182;3.160;2023-11-21T07:57:19;23.77;;;8.50;;
11921;SDS011;6021;51.182;3.160;2023-11-21T07:59:47;12.57;;;7.50;;
11921;SDS011;6021;51.182;3.160;2023-11-21T08:02:16;11.60;;;7.17;;
11921;SDS011;6021;51.182;3.160;2023-11-21T08:04:44;18.83;;;7.67;;
11921;SDS011;6021;51.182;3.160;2023-11-21T08:07:14;9.57;;;6.50;;
11921;SDS011;6021;51.182;3.160;2023-11-21T08:09:44;4.90;;;4.50;;
11921;SDS011;6021;51.182;3.160;2023-11-21T08:12:14;11.13;;;5.83;;
11921;SDS011;6021;51.182;3.160;2023-11-21T08:14:44;13.90;;;6.13;;
11921;SDS011;6021;51.182;3.160;2023-11-21T08:17:12;9.87;;;5.27;;
11921;SDS011;6021;51.182;3.160;2023-11-21T08:19:40;18.53;;;5.67;;
11921;SDS011;6021;51.182;3.160;2023-11-21T08:22:09;9.27;;;4.80;;
11921;SDS011;6021;51.182;3.160;2023-11-21T08:24:37;9.10;;;4.23;;
11921;SDS011;6021;51.182;3.160;2023-11-21T08:27:06;6.77;;;3.60;;
11921;SDS011;6021;51.182;3.160;2023-11-21T08:29:34;7.87;;;4.20;;
11921;SDS011;6021;51.182;3.160;2023-11-21T08:32:02;14.13;;;4.77;;
11921;SDS011;6021;51.182;3.160;2023-11-21T08:34:32;7.97;;;4.07;;
11921;SDS011;6021;51.182;3.160;2023-11-21T08:37:00;6.03;;;3.00;;
11921;SDS011;6021;51.182;3.160;2023-11-21T08:39:28;7.60;;;3.20;;
11921;SDS011;6021;51.182;3.160;2023-11-21T08:41:57;6.83;;;3.17;;
11921;SDS011;6021;51.182;3.160;2023-11-21T08:44:25;7.27;;;3.20;;
11921;SDS011;6021;51.182;3.160;2023-11-21T08:46:54;4.43;;;3.03;;
11921;SDS011;6021;51.182;3.160;2023-11-21T08:49:22;6.00;;;2.90;;
11921;SDS011;6021;51.182;3.160;2023-11-21T08:51:52;5.50;;;2.73;;
11921;SDS011;6021;51.182;3.160;2023-11-21T08:54:26;6.87;;;2.90;;
11921;SDS011;6021;51.182;3.160;2023-11-21T08:56:54;6.10;;;2.50;;
11921;SDS011;6021;51.182;3.160;2023-11-21T08:59:24;6.67;;;2.40;;
11921;SDS011;6021;51.182;3.160;2023-11-21T09:01:53;11.10;;;2.70;;
11921;SDS011;6021;51.182;3.160;2023-11-21T09:04:21;5.13;;;2.23;;
11921;SDS011;6021;51.182;3.160;2023-11-21T09:06:49;6.20;;;2.13;;
11921;SDS011;6021;51.182;3.160;2023-11-21T09:09:18;4.40;;;2.20;;
11921;SDS011;6021;51.182;3.160;2023-11-21T09:11:46;4.33;;;2.07;;
11921;SDS011;6021;51.182;3.160;2023-11-21T09:14:16;4.67;;;2.20;;
11921;SDS011;6021;51.182;3.160;2023-11-21T09:16:45;4.50;;;1.90;;
11921;SDS011;6021;51.182;3.160;2023-11-21T09:19:13;3.53;;;1.90;;
11921;SDS011;6021;51.182;3.160;2023-11-21T09:21:42;5.13;;;2.03;;
11921;SDS011;6021;51.182;3.160;2023-11-21T09:24:10;4.53;;;2.00;;
11921;SDS011;6021;51.182;3.160;2023-11-21T09:26:38;7.33;;;2.10;;
11921;SDS011;6021;51.182;3.160;2023-11-21T09:29:07;5.00;;;2.20;;
11921;SDS011;6021;51.182;3.160;2023-11-21T09:31:36;5.97;;;1.97;;
11921;SDS011;6021;51.182;3.160;2023-11-21T09:34:06;5.30;;;2.23;;
11921;SDS011;6021;51.182;3.160;2023-11-21T09:36:34;6.70;;;3.00;;
11921;SDS011;6021;51.182;3.160;2023-11-21T09:39:04;8.77;;;4.47;;
11921;SDS011;6021;51.182;3.160;2023-11-21T09:41:37;7.37;;;2.80;;
11921;SDS011;6021;51.182;3.160;2023-11-21T09:46:59;5.37;;;2.30;;
11921;SDS011;6021;51.182;3.160;2023-11-21T09:49:29;5.30;;;2.10;;
11921;SDS011;6021;51.182;3.160;2023-11-21T09:52:01;5.63;;;2.50;;
11921;SDS011;6021;51.182;3.160;2023-11-21T09:54:32;4.53;;;2.30;;
11921;SDS011;6021;51.182;3.160;2023-11-21T09:57:02;5.77;;;2.77;;
11921;SDS011;6021;51.182;3.160;2023-11-21T09:59:32;7.97;;;2.83;;
11921;SDS011;6021;51.182;3.160;2023-11-21T10:02:02;7.90;;;2.97;;
11921;SDS011;6021;51.182;3.160;2023-11-21T10:04:30;6.17;;;2.70;;
11921;SDS011;6021;51.182;3.160;2023-11-21T10:06:59;7.30;;;3.20;;
11921;SDS011;6021;51.182;3.160;2023-11-21T10:09:30;10.23;;;3.53;;
11921;SDS011;6021;51.182;3.160;2023-11-21T10:11:58;7.20;;;3.33;;
11921;SDS011;6021;51.182;3.160;2023-11-21T10:14:27;8.93;;;3.67;;
11921;SDS011;6021;51.182;3.160;2023-11-21T10:16:56;7.57;;;2.70;;
11921;SDS011;6021;51.182;3.160;2023-11-21T10:19:25;7.00;;;2.80;;
11921;SDS011;6021;51.182;3.160;2023-11-21T10:21:55;11.23;;;2.80;;
11921;SDS011;6021;51.182;3.160;2023-11-21T10:24:25;9.67;;;3.10;;
11921;SDS011;6021;51.182;3.160;2023-11-21T10:26:53;13.07;;;3.27;;
11921;SDS011;6021;51.182;3.160;2023-11-21T10:29:22;9.90;;;2.40;;
11921;SDS011;6021;51.182;3.160;2023-11-21T10:31:50;7.27;;;2.63;;
11921;SDS011;6021;51.182;3.160;2023-11-21T10:34:20;10.13;;;3.00;;
11921;SDS011;6021;51.182;3.160;2023-11-21T10:36:49;8.87;;;2.67;;
11921;SDS011;6021;51.182;3.160;2023-11-21T10:39:18;7.93;;;2.80;;
11921;SDS011;6021;51.182;3.160;2023-11-21T10:41:49;9.50;;;2.70;;
11921;SDS011;6021;51.182;3.160;2023-11-21T10:44:18;6.77;;;2.80;;
11921;SDS011;6021;51.182;3.160;2023-11-21T10:46:53;7.70;;;2.73;;
11921;SDS011;6021;51.182;3.160;2023-11-21T10:49:24;9.00;;;2.77;;
11921;SDS011;6021;51.182;3.160;2023-11-21T10:51:53;8.97;;;2.90;;
11921;SDS011;6021;51.182;3.160;2023-11-21T10:54:25;8.93;;;3.00;;
11921;SDS011;6021;51.182;3.160;2023-11-21T10:56:57;9.50;;;3.10;;
11921;SDS011;6021;51.182;3.160;2023-11-21T10:59:28;8.03;;;3.10;;
11921;SDS011;6021;51.182;3.160;2023-11-21T11:01:58;9.50;;;3.10;;
11921;SDS011;6021;51.182;3.160;2023-11-21T11:04:29;7.90;;;2.90;;
11921;SDS011;6021;51.182;3.160;2023-11-21T11:07:01;7.67;;;2.60;;
11921;SDS011;6021;51.182;3.160;2023-11-21T11:09:30;8.57;;;2.80;;
11921;SDS011;6021;51.182;3.160;2023-11-21T11:12:02;8.20;;;2.70;;
11921;SDS011;6021;51.182;3.160;2023-11-21T11:14:34;8.83;;;2.73;;
11921;SDS011;6021;51.182;3.160;2023-11-21T11:17:04;9.43;;;2.63;;
11921;SDS011;6021;51.182;3.160;2023-11-21T11:19:35;8.30;;;2.70;;
11921;SDS011;6021;51.182;3.160;2023-11-21T11:32:55;8.57;;;2.57;;
11921;SDS011;6021;51.182;3.160;2023-11-21T11:35:34;6.90;;;2.10;;
11921;SDS011;6021;51.182;3.160;2023-11-21T11:38:21;11.00;;;2.50;;
11921;SDS011;6021;51.182;3.160;2023-11-21T11:40:53;8.83;;;2.40;;
11921;SDS011;6021;51.182;3.160;2023-11-21T11:43:31;8.33;;;2.30;;
11921;SDS011;6021;51.182;3.160;2023-11-21T11:45:57;8.27;;;2.43;;
11921;SDS011;6021;51.182;3.160;2023-11-21T11:48:34;8.73;;;2.43;;
11921;SDS011;6021;51.182;3.160;2023-11-21T11:51:17;7.97;;;2.47;;
11921;SDS011;6021;51.182;3.160;2023-11-21T11:53:44;11.07;;;2.73;;
11921;SDS011;6021;51.182;3.160;2023-11-21T11:56:22;9.13;;;2.83;;
11921;SDS011;6021;51.182;3.160;2023-11-21T11:58:57;9.00;;;2.80;;
11921;SDS011;6021;51.182;3.160;2023-11-21T12:01:28;11.93;;;2.40;;
11921;SDS011;6021;51.182;3.160;2023-11-21T12:06:53;11.37;;;2.90;;
11921;SDS011;6021;51.182;3.160;2023-11-21T12:09:23;7.37;;;2.60;;
11921;SDS011;6021;51.182;3.160;2023-11-21T12:11:53;8.57;;;2.50;;
11921;SDS011;6021;51.182;3.160;2023-11-21T12:14:24;7.00;;;2.10;;
11921;SDS011;6021;51.182;3.160;2023-11-21T12:16:52;7.57;;;2.53;;
11921;SDS011;6021;51.182;3.160;2023-11-21T12:19:21;10.23;;;2.60;;
11921;SDS011;6021;51.182;3.160;2023-11-21T12:21:50;10.30;;;2.83;;
11921;SDS011;6021;51.182;3.160;2023-11-21T12:24:18;8.93;;;2.57;;
11921;SDS011;6021;51.182;3.160;2023-11-21T12:26:47;6.60;;;2.50;;
11921;SDS011;6021;51.182;3.160;2023-11-21T12:29:15;6.97;;;2.30;;
11921;SDS011;6021;51.182;3.160;2023-11-21T12:31:43;6.40;;;2.50;;
11921;SDS011;6021;51.182;3.160;2023-11-21T12:34:12;8.57;;;3.00;;
11921;SDS011;6021;51.182;3.160;2023-11-21T12:36:41;7.00;;;2.30;;
11921;SDS011;6021;51.182;3.160;2023-11-21T12:39:10;5.47;;;2.13;;
11921;SDS011;6021;51.182;3.160;2023-11-21T12:41:41;6.27;;;2.47;;
11921;SDS011;6021;51.182;3.160;2023-11-21T12:44:10;5.87;;;2.17;;
11921;SDS011;6021;51.182;3.160;2023-11-21T12:46:42;5.10;;;2.20;;
11921;SDS011;6021;51.182;3.160;2023-11-21T12:49:11;4.63;;;2.17;;
11921;SDS011;6021;51.182;3.160;2023-11-21T12:51:41;7.73;;;2.17;;
11921;SDS011;6021;51.182;3.160;2023-11-21T12:54:11;5.60;;;2.27;;
11921;SDS011;6021;51.182;3.160;2023-11-21T12:56:40;7.27;;;2.30;;
11921;SDS011;6021;51.182;3.160;2023-11-21T12:59:08;7.37;;;2.23;;
11921;SDS011;6021;51.182;3.160;2023-11-21T13:01:41;5.33;;;2.00;;
11921;SDS011;6021;51.182;3.160;2023-11-21T13:04:10;6.27;;;2.13;;
11921;SDS011;6021;51.182;3.160;2023-11-21T13:06:38;7.47;;;2.30;;
11921;SDS011;6021;51.182;3.160;2023-11-21T13:09:07;5.40;;;2.10;;
11921;SDS011;6021;51.182;3.160;2023-11-21T13:11:40;8.53;;;2.20;;
11921;SDS011;6021;51.182;3.160;2023-11-21T13:14:10;6.30;;;2.23;;
11921;SDS011;6021;51.182;3.160;2023-11-21T13:16:39;5.23;;;2.30;;
11921;SDS011;6021;51.182;3.160;2023-11-21T13:19:09;6.43;;;2.30;;
11921;SDS011;6021;51.182;3.160;2023-11-21T13:21:38;6.23;;;2.23;;
11921;SDS011;6021;51.182;3.160;2023-11-21T13:24:06;7.17;;;2.00;;
11921;SDS011;6021;51.182;3.160;2023-11-21T13:26:36;8.20;;;2.00;;
11921;SDS011;6021;51.182;3.160;2023-11-21T13:29:05;4.23;;;1.90;;
11921;SDS011;6021;51.182;3.160;2023-11-21T13:31:33;4.67;;;1.73;;
11921;SDS011;6021;51.182;3.160;2023-11-21T13:34:03;3.80;;;1.60;;
11921;SDS011;6021;51.182;3.160;2023-11-21T13:36:32;4.00;;;1.50;;
11921;SDS011;6021;51.182;3.160;2023-11-21T13:39:01;3.63;;;1.90;;
11921;SDS011;6021;51.182;3.160;2023-11-21T13:41:34;5.67;;;1.80;;
11921;SDS011;6021;51.182;3.160;2023-11-21T13:44:04;4.43;;;1.80;;
11921;SDS011;6021;51.182;3.160;2023-11-21T13:46:46;4.33;;;1.73;;
11921;SDS011;6021;51.182;3.160;2023-11-21T13:49:15;5.47;;;1.90;;
11921;SDS011;6021;51.182;3.160;2023-11-21T13:51:43;5.07;;;2.00;;
11921;SDS011;6021;51.182;3.160;2023-11-21T13:54:13;4.90;;;1.60;;
11921;SDS011;6021;51.182;3.160;2023-11-21T13:56:41;4.57;;;1.80;;
11921;SDS011;6021;51.182;3.160;2023-11-21T13:59:11;3.90;;;1.70;;
11921;SDS011;6021;51.182;3.160;2023-11-21T14:01:44;4.23;;;1.80;;
11921;SDS011;6021;51.182;3.160;2023-11-21T14:04:26;4.13;;;1.70;;
11921;SDS011;6021;51.182;3.160;2023-11-21T14:06:59;4.57;;;2.10;;
11921;SDS011;6021;51.182;3.160;2023-11-21T14:09:29;4.80;;;1.90;;
11921;SDS011;6021;51.182;3.160;2023-11-21T14:12:01;4.87;;;1.90;;
11921;SDS011;6021;51.182;3.160;2023-11-21T14:14:31;4.07;;;1.70;;
11921;SDS011;6021;51.182;3.160;2023-11-21T14:17:00;4.80;;;1.87;;
11921;SDS011;6021;51.182;3.160;2023-11-21T14:19:30;3.57;;;1.80;;
11921;SDS011;6021;51.182;3.160;2023-11-21T14:22:00;3.67;;;1.90;;
11921;SDS011;6021;51.182;3.160;2023-11-21T14:24:28;4.93;;;1.73;;
11921;SDS011;6021;51.182;3.160;2023-11-21T14:26:57;4.77;;;1.90;;
11921;SDS011;6021;51.182;3.160;2023-11-21T14:29:26;3.20;;;1.80;;
11921;SDS011;6021;51.182;3.160;2023-11-21T14:31:56;4.20;;;2.10;;
11921;SDS011;6021;51.182;3.160;2023-11-21T14:34:24;4.80;;;2.00;;
11921;SDS011;6021;51.182;3.160;2023-11-21T14:36:53;4.10;;;1.73;;
11921;SDS011;6021;51.182;3.160;2023-11-21T14:39:21;5.87;;;2.10;;
11921;SDS011;6021;51.182;3.160;2023-11-21T14:41:50;5.73;;;1.83;;
11921;SDS011;6021;51.182;3.160;2023-11-21T14:44:19;5.00;;;1.90;;
11921;SDS011;6021;51.182;3.160;2023-11-21T14:46:49;6.00;;;2.10;;
11921;SDS011;6021;51.182;3.160;2023-11-21T14:49:18;4.10;;;2.03;;
11921;SDS011;6021;51.182;3.160;2023-11-21T14:51:46;5.87;;;2.10;;
11921;SDS011;6021;51.182;3.160;2023-11-21T14:54:20;4.20;;;2.00;;
11921;SDS011;6021;51.182;3.160;2023-11-21T14:56:50;3.70;;;1.60;;
11921;SDS011;6021;51.182;3.160;2023-11-21T14:59:19;3.33;;;1.53;;
11921;SDS011;6021;51.182;3.160;2023-11-21T15:01:49;3.20;;;1.63;;
11921;SDS011;6021;51.182;3.160;2023-11-21T15:04:21;3.80;;;1.60;;
11921;SDS011;6021;51.182;3.160;2023-11-21T15:07:00;3.17;;;1.67;;
11921;SDS011;6021;51.182;3.160;2023-11-21T15:09:30;4.17;;;1.60;;
11921;SDS011;6021;51.182;3.160;2023-11-21T15:12:00;1.87;;;1.40;;
11921;SDS011;6021;51.182;3.160;2023-11-21T15:14:46;2.57;;;1.70;;
11921;SDS011;6021;51.182;3.160;2023-11-21T15:17:17;2.83;;;1.70;;
11921;SDS011;6021;51.182;3.160;2023-11-21T15:19:56;2.60;;;1.63;;
11921;SDS011;6021;51.182;3.160;2023-11-21T15:22:26;2.77;;;1.50;;
11921;SDS011;6021;51.182;3.160;2023-11-21T15:24:55;3.00;;;1.70;;
11921;SDS011;6021;51.182;3.160;2023-11-21T15:27:24;3.27;;;1.80;;
11921;SDS011;6021;51.182;3.160;2023-11-21T15:29:53;6.67;;;1.93;;